Time;durP1;ratioP1;P1;durP2;ratioP2;P2;SDS_P1;SDS_P2;PMS_P1;PMS_P2;Temp;Humidity;BMP_temperature;BMP_pressure;BME280_temperature;BME280_humidity;BME280_pressure;Samples;Min_cycle;Max_cycle;Signal;HPM_P1;HPM_P2
2023/09/19 00:01:08;;;;;;;5.30;3.17;;;16.10;99.90;;;;;;4998947;28;20204;-89
2023/09/19 00:03:38;;;;;;;7.10;3.70;;;16.10;99.90;;;;;;4982246;28;20248;-89
2023/09/19 00:06:07;;;;;;;8.18;3.58;;;16.00;99.90;;;;;;4982488;28;20224;-89
2023/09/19 00:08:33;;;;;;;6.85;3.78;;;16.00;99.90;;;;;;4982658;28;20537;-89
2023/09/19 00:11:03;;;;;;;9.38;4.05;;;16.00;99.90;;;;;;4998366;28;20192;-89
2023/09/19 00:13:30;;;;;;;9.98;3.53;;;15.90;99.90;;;;;;4999427;28;20164;-89
2023/09/19 00:15:58;;;;;;;9.73;3.45;;;15.90;99.90;;;;;;4982179;28;20204;-89
2023/09/19 00:18:28;;;;;;;7.18;3.40;;;15.80;99.90;;;;;;4981633;28;20195;-88
2023/09/19 00:20:57;;;;;;;8.93;4.03;;;15.80;99.90;;;;;;4982224;28;20200;-89
2023/09/19 00:23:24;;;;;;;8.73;4.13;;;15.80;99.90;;;;;;4982667;28;20189;-89
2023/09/19 00:25:50;;;;;;;8.32;3.78;;;15.80;99.90;;;;;;4981573;28;20191;-88
2023/09/19 00:28:18;;;;;;;7.13;4.18;;;15.80;99.90;;;;;;4976429;28;20180;-89
2023/09/19 00:30:44;;;;;;;7.25;3.60;;;15.80;99.90;;;;;;4982503;28;20272;-89
2023/09/19 00:33:15;;;;;;;7.72;3.88;;;15.70;99.90;;;;;;4981317;28;20184;-89
2023/09/19 00:35:50;;;;;;;12.63;4.30;;;15.70;99.90;;;;;;4998076;28;20163;-89
2023/09/19 00:38:17;;;;;;;10.60;3.80;;;15.70;99.90;;;;;;4981343;28;20172;-89
2023/09/19 00:40:46;;;;;;;11.07;3.85;;;15.60;99.90;;;;;;4981724;28;20204;-89
2023/09/19 00:43:12;;;;;;;9.55;3.15;;;15.60;99.90;;;;;;4981786;28;20550;-89
2023/09/19 00:45:38;;;;;;;11.75;3.95;;;15.60;99.90;;;;;;4984462;28;20188;-89
2023/09/19 00:48:09;;;;;;;11.32;3.60;;;15.60;99.90;;;;;;4999061;28;20200;-88
2023/09/19 00:50:42;;;;;;;10.48;3.00;;;15.50;99.90;;;;;;4987668;28;20283;-89
2023/09/19 00:53:13;;;;;;;10.07;3.97;;;15.50;99.90;;;;;;4990055;28;20165;-89
2023/09/19 00:55:40;;;;;;;11.43;3.70;;;15.40;99.90;;;;;;4985279;28;20168;-88
2023/09/19 00:58:06;;;;;;;13.43;3.88;;;15.40;99.90;;;;;;4980453;28;20181;-88
2023/09/19 01:00:34;;;;;;;7.43;3.35;;;15.40;99.90;;;;;;4981824;28;20200;-88
2023/09/19 01:03:04;;;;;;;9.10;3.75;;;15.30;99.90;;;;;;4981189;28;20176;-88
2023/09/19 01:05:30;;;;;;;8.48;3.42;;;15.30;99.90;;;;;;4980711;28;20616;-88
2023/09/19 01:07:56;;;;;;;9.63;3.65;;;15.30;99.90;;;;;;4980785;28;20231;-88
2023/09/19 01:10:22;;;;;;;12.60;3.78;;;15.30;99.90;;;;;;4982901;28;20192;-89
2023/09/19 01:13:00;;;;;;;10.45;3.65;;;15.30;99.90;;;;;;4981528;28;20172;-89
2023/09/19 01:15:40;;;;;;;8.63;3.63;;;15.20;99.90;;;;;;4996870;28;20188;-89
2023/09/19 01:18:35;;;;;;;10.68;3.80;;;15.20;99.90;;;;;;4996276;28;20195;-88
2023/09/19 01:21:28;;;;;;;8.80;3.78;;;15.20;99.90;;;;;;4979981;28;20282;-88
2023/09/19 01:24:06;;;;;;;11.90;3.90;;;15.20;99.90;;;;;;4979673;28;20199;-88
2023/09/19 01:26:53;;;;;;;10.27;3.50;;;15.20;99.90;;;;;;4979554;28;20246;-88
2023/09/19 01:29:39;;;;;;;10.68;4.10;;;15.10;99.90;;;;;;4997643;28;20218;-89
2023/09/19 01:32:06;;;;;;;9.50;4.00;;;15.10;99.90;;;;;;4980735;28;20663;-89
2023/09/19 01:34:52;;;;;;;12.05;3.80;;;15.20;99.90;;;;;;4980400;28;20190;-89
2023/09/19 01:37:20;;;;;;;9.52;3.28;;;15.10;99.90;;;;;;4980675;28;20589;-89
2023/09/19 01:39:54;;;;;;;9.43;3.65;;;15.10;99.90;;;;;;4981302;28;20233;-88
2023/09/19 01:42:22;;;;;;;11.20;4.15;;;15.00;99.90;;;;;;4989721;28;20172;-88
2023/09/19 01:44:47;;;;;;;15.80;4.07;;;14.90;99.90;;;;;;4997965;28;20180;-89
2023/09/19 01:47:28;;;;;;;11.07;4.05;;;14.90;99.90;;;;;;4997633;28;20207;-89
2023/09/19 01:50:18;;;;;;;11.02;4.05;;;14.90;99.90;;;;;;4981510;28;20192;-89
2023/09/19 01:53:09;;;;;;;12.05;4.70;;;14.80;99.90;;;;;;4994127;28;20164;-90
2023/09/19 01:55:42;;;;;;;7.88;3.40;;;14.80;99.90;;;;;;5018843;28;20184;-89
2023/09/19 01:58:31;;;;;;;14.73;4.00;;;14.90;99.90;;;;;;5002435;28;20224;-89
2023/09/19 02:01:00;;;;;;;13.15;3.78;;;14.80;99.90;;;;;;5017355;28;20200;-90
2023/09/19 02:03:27;;;;;;;11.05;3.88;;;14.80;99.90;;;;;;5001750;28;20173;-90
2023/09/19 02:05:53;;;;;;;9.68;3.85;;;14.80;99.90;;;;;;4992083;28;20220;-89
2023/09/19 02:08:23;;;;;;;14.43;4.15;;;14.80;99.90;;;;;;4982193;28;20204;-88
2023/09/19 02:10:49;;;;;;;14.02;4.45;;;14.80;99.90;;;;;;4983319;28;20621;-89
2023/09/19 02:13:19;;;;;;;9.00;3.90;;;14.70;99.90;;;;;;4981973;28;20203;-88
2023/09/19 02:15:47;;;;;;;10.73;3.83;;;14.70;99.90;;;;;;4981288;28;20199;-88
2023/09/19 02:18:16;;;;;;;11.30;3.50;;;14.70;99.90;;;;;;4998323;28;20307;-88
2023/09/19 02:20:42;;;;;;;14.35;4.57;;;14.70;99.90;;;;;;4996120;28;20621;-88
2023/09/19 02:23:09;;;;;;;11.38;3.83;;;14.70;99.90;;;;;;4979808;28;20181;-88
2023/09/19 02:25:35;;;;;;;11.23;3.75;;;14.70;99.90;;;;;;4979910;28;20184;-88
2023/09/19 02:28:03;;;;;;;6.88;3.72;;;14.70;99.90;;;;;;4980151;28;20201;-88
2023/09/19 02:30:29;;;;;;;10.73;3.80;;;14.70;99.90;;;;;;4997315;28;20287;-88
2023/09/19 02:32:55;;;;;;;12.25;4.00;;;14.70;99.90;;;;;;4982753;28;20184;-89
2023/09/19 02:35:21;;;;;;;14.63;4.18;;;14.70;99.90;;;;;;4983250;28;20259;-88
2023/09/19 02:37:48;;;;;;;9.80;3.63;;;14.70;99.90;;;;;;4982661;28;20663;-88
2023/09/19 02:40:21;;;;;;;14.30;3.50;;;14.70;99.90;;;;;;4982657;28;20204;-88
2023/09/19 02:42:55;;;;;;;12.18;4.25;;;14.60;99.90;;;;;;4982801;28;20564;-88
2023/09/19 02:45:21;;;;;;;13.02;4.00;;;14.60;99.90;;;;;;4983425;28;20196;-88
2023/09/19 02:47:47;;;;;;;13.38;3.83;;;14.60;99.90;;;;;;4986727;28;20644;-87
2023/09/19 02:50:15;;;;;;;9.48;3.83;;;14.60;99.90;;;;;;4985082;28;20196;-86
2023/09/19 02:52:45;;;;;;;10.80;3.75;;;14.60;99.90;;;;;;4984179;28;20521;-87
2023/09/19 02:55:14;;;;;;;12.63;4.25;;;14.60;99.90;;;;;;4983293;28;20204;-89
2023/09/19 02:57:42;;;;;;;13.55;4.95;;;14.60;99.90;;;;;;4999277;28;20188;-89
2023/09/19 03:00:12;;;;;;;11.18;3.88;;;14.60;99.90;;;;;;4998661;28;20208;-88
2023/09/19 03:02:39;;;;;;;12.45;4.10;;;14.60;99.90;;;;;;4983013;28;20180;-89
2023/09/19 03:05:06;;;;;;;11.45;4.10;;;14.60;99.90;;;;;;4983087;28;20199;-88
2023/09/19 03:07:33;;;;;;;11.00;4.13;;;14.60;99.90;;;;;;4983670;28;20192;-89
2023/09/19 03:10:10;;;;;;;10.35;4.25;;;14.60;99.90;;;;;;4984326;28;20291;-89
2023/09/19 03:12:36;;;;;;;12.73;4.32;;;14.70;99.90;;;;;;4983506;28;20173;-89
2023/09/19 03:15:04;;;;;;;16.90;3.95;;;14.60;99.90;;;;;;4983713;28;20201;-89
2023/09/19 03:17:30;;;;;;;16.45;4.40;;;14.70;99.90;;;;;;4982949;28;20182;-88
2023/09/19 03:19:57;;;;;;;11.45;4.28;;;14.60;99.90;;;;;;4985722;28;20224;-89
2023/09/19 03:22:24;;;;;;;12.30;4.20;;;14.60;99.90;;;;;;4986032;28;20181;-89
2023/09/19 03:24:50;;;;;;;13.88;3.65;;;14.60;99.90;;;;;;4987490;28;20177;-89
2023/09/19 03:27:16;;;;;;;13.05;4.97;;;14.60;99.90;;;;;;4986260;28;20706;-87
2023/09/19 03:29:42;;;;;;;12.10;4.53;;;14.60;99.90;;;;;;4981895;28;20679;-87
2023/09/19 03:32:11;;;;;;;14.90;4.40;;;14.60;99.90;;;;;;4982081;28;20209;-88
2023/09/19 03:34:42;;;;;;;12.77;3.75;;;14.60;99.90;;;;;;4981899;28;20230;-88
2023/09/19 03:37:08;;;;;;;14.43;4.13;;;14.60;99.90;;;;;;4983516;28;20183;-87
2023/09/19 03:39:34;;;;;;;14.05;4.07;;;14.60;99.90;;;;;;4985194;28;20200;-88
2023/09/19 03:42:01;;;;;;;14.57;4.25;;;14.60;99.90;;;;;;4982946;28;20659;-90
2023/09/19 03:44:26;;;;;;;10.73;4.50;;;14.50;99.90;;;;;;4982750;28;20729;-91
2023/09/19 03:46:52;;;;;;;10.77;4.00;;;14.50;99.90;;;;;;4982647;28;20287;-90
2023/09/19 03:49:19;;;;;;;13.52;4.80;;;14.50;99.90;;;;;;4999365;28;20525;-91
2023/09/19 03:51:44;;;;;;;14.63;4.05;;;14.50;99.90;;;;;;4983335;28;20182;-90
2023/09/19 03:54:10;;;;;;;11.20;3.88;;;14.40;99.90;;;;;;4983624;28;20181;-88
2023/09/19 03:56:36;;;;;;;7.38;3.72;;;14.40;99.90;;;;;;5000701;28;20203;-90
2023/09/19 03:59:02;;;;;;;15.13;3.95;;;14.40;99.90;;;;;;5001335;28;20184;-90
2023/09/19 04:01:30;;;;;;;9.30;3.85;;;14.30;99.90;;;;;;4983245;28;20210;-89
2023/09/19 04:03:56;;;;;;;12.07;3.70;;;14.30;99.90;;;;;;4982858;28;20188;-91
2023/09/19 04:06:23;;;;;;;13.13;3.95;;;14.30;99.90;;;;;;4982963;28;20211;-89
2023/09/19 04:08:49;;;;;;;12.27;3.90;;;14.30;99.90;;;;;;4981632;28;20187;-88
2023/09/19 04:11:15;;;;;;;11.25;4.03;;;14.20;99.90;;;;;;4980831;28;20196;-88
2023/09/19 04:13:41;;;;;;;11.45;3.92;;;14.20;99.90;;;;;;4997989;28;20181;-88
2023/09/19 04:16:06;;;;;;;14.45;4.38;;;14.20;99.90;;;;;;4980113;28;20196;-88
2023/09/19 04:18:37;;;;;;;12.73;4.15;;;14.10;99.90;;;;;;4979994;28;20185;-87
2023/09/19 04:21:04;;;;;;;12.07;3.95;;;14.10;99.90;;;;;;4996132;28;20197;-88
2023/09/19 04:23:30;;;;;;;11.57;4.20;;;14.10;99.90;;;;;;4997219;28;20172;-88
2023/09/19 04:25:57;;;;;;;14.32;4.40;;;14.10;99.90;;;;;;4980383;28;20180;-88
2023/09/19 04:28:24;;;;;;;12.88;3.65;;;14.10;99.90;;;;;;4979815;28;20728;-88
2023/09/19 04:30:50;;;;;;;12.18;3.70;;;14.10;99.90;;;;;;4979317;28;20201;-88
2023/09/19 04:33:16;;;;;;;11.00;4.20;;;14.00;99.90;;;;;;4979967;28;20172;-88
2023/09/19 04:35:44;;;;;;;14.25;4.03;;;14.00;99.90;;;;;;4996595;28;20184;-88
2023/09/19 04:38:11;;;;;;;12.88;4.25;;;13.90;99.90;;;;;;4996973;28;20207;-88
2023/09/19 04:40:39;;;;;;;10.43;4.00;;;13.90;99.90;;;;;;4980973;28;20196;-88
2023/09/19 04:43:05;;;;;;;18.92;4.13;;;13.90;99.90;;;;;;4980022;28;20185;-88
2023/09/19 04:45:31;;;;;;;10.23;3.35;;;13.90;99.90;;;;;;4979114;28;20209;-88
2023/09/19 04:47:57;;;;;;;12.98;3.60;;;13.90;99.90;;;;;;4995524;28;20667;-89
2023/09/19 04:50:24;;;;;;;11.73;3.90;;;13.90;99.90;;;;;;4979171;28;20573;-88
2023/09/19 04:52:50;;;;;;;15.98;4.38;;;14.00;99.90;;;;;;4979278;28;20172;-88
2023/09/19 04:55:19;;;;;;;11.23;3.78;;;13.90;99.90;;;;;;4987233;28;20176;-88
2023/09/19 04:57:49;;;;;;;12.77;4.35;;;13.90;99.90;;;;;;4995186;28;20638;-88
2023/09/19 05:00:23;;;;;;;15.07;4.93;;;13.90;99.90;;;;;;4979553;28;20331;-88
2023/09/19 05:02:55;;;;;;;16.50;4.13;;;13.90;99.90;;;;;;4996339;28;20205;-88
2023/09/19 05:05:22;;;;;;;12.13;4.03;;;13.90;99.90;;;;;;4995146;28;20181;-88
2023/09/19 05:07:48;;;;;;;9.27;3.50;;;13.90;99.90;;;;;;4978439;28;20204;-88
2023/09/19 05:10:14;;;;;;;13.35;3.83;;;13.90;99.90;;;;;;4978958;28;20196;-88
2023/09/19 05:12:41;;;;;;;14.27;4.65;;;13.90;99.90;;;;;;4978173;28;20188;-88
2023/09/19 05:15:08;;;;;;;12.07;4.72;;;13.90;99.90;;;;;;4977906;28;20231;-88
2023/09/19 05:17:34;;;;;;;16.48;4.38;;;13.80;99.90;;;;;;4977896;28;20191;-88
2023/09/19 05:20:29;;;;;;;11.43;4.43;;;13.80;99.90;;;;;;4993952;28;20211;-88
2023/09/19 05:22:50;;;;;;;9.88;3.97;;;13.80;99.90;;;;;;4994799;28;20188;-87
2023/09/19 05:25:18;;;;;;;11.73;4.47;;;13.90;99.90;;;;;;4977776;28;20268;-88
2023/09/19 05:27:44;;;;;;;13.57;4.00;;;13.80;99.90;;;;;;4995273;28;20602;-88
2023/09/19 05:30:10;;;;;;;10.48;3.92;;;13.80;99.90;;;;;;4978064;28;20195;-88
2023/09/19 05:32:36;;;;;;;12.70;4.15;;;13.80;99.90;;;;;;4978402;28;20196;-88
2023/09/19 05:35:03;;;;;;;15.50;4.68;;;13.80;99.90;;;;;;4977992;28;20610;-88
2023/09/19 05:37:29;;;;;;;9.32;4.28;;;13.80;99.90;;;;;;4978053;28;20184;-88
2023/09/19 05:39:55;;;;;;;11.10;4.22;;;13.90;99.90;;;;;;4994083;28;20205;-87
2023/09/19 05:42:21;;;;;;;12.88;4.45;;;13.90;99.90;;;;;;4977516;28;20215;-88
2023/09/19 05:44:46;;;;;;;15.00;4.47;;;13.90;99.90;;;;;;4977813;28;20180;-88
2023/09/19 05:47:12;;;;;;;11.65;4.55;;;13.80;99.90;;;;;;4978473;28;20215;-88
2023/09/19 05:49:38;;;;;;;9.50;4.88;;;13.80;99.90;;;;;;4977703;28;20192;-88
2023/09/19 05:52:06;;;;;;;10.45;4.10;;;13.80;99.90;;;;;;4977539;28;20181;-88
2023/09/19 05:54:34;;;;;;;13.07;4.05;;;13.80;99.90;;;;;;4977624;28;20246;-88
2023/09/19 05:57:01;;;;;;;13.32;4.32;;;13.90;99.90;;;;;;4980919;28;20234;-88
2023/09/19 05:59:27;;;;;;;15.32;5.53;;;13.90;99.90;;;;;;4979116;28;20244;-88
2023/09/19 06:01:53;;;;;;;10.85;4.32;;;14.00;99.90;;;;;;4977372;28;20208;-88
2023/09/19 06:04:19;;;;;;;12.10;4.15;;;14.00;99.90;;;;;;4977762;28;20189;-88
2023/09/19 06:06:48;;;;;;;15.15;4.45;;;14.00;99.90;;;;;;4981129;28;20212;-88
2023/09/19 06:09:14;;;;;;;9.77;4.45;;;14.10;99.90;;;;;;4998799;28;20169;-87
2023/09/19 06:11:42;;;;;;;12.25;3.80;;;14.10;99.90;;;;;;4981665;28;20188;-88
2023/09/19 06:14:10;;;;;;;11.82;3.85;;;14.10;99.90;;;;;;4980902;28;20708;-88
2023/09/19 06:16:37;;;;;;;14.57;4.22;;;14.10;99.90;;;;;;4981468;28;20719;-88
2023/09/19 06:19:06;;;;;;;12.70;3.90;;;14.10;99.90;;;;;;4981670;28;20184;-87
2023/09/19 06:21:32;;;;;;;9.18;4.03;;;14.20;99.90;;;;;;4997246;28;20204;-88
2023/09/19 06:23:59;;;;;;;10.43;4.28;;;14.20;99.90;;;;;;4981030;28;20263;-88
2023/09/19 06:26:27;;;;;;;11.70;4.05;;;14.20;99.90;;;;;;4981275;28;20640;-88
2023/09/19 06:28:52;;;;;;;13.70;4.30;;;14.20;99.90;;;;;;4981069;28;20176;-88
2023/09/19 06:31:18;;;;;;;16.48;4.72;;;14.20;99.90;;;;;;4981038;28;20204;-88
2023/09/19 06:33:44;;;;;;;10.00;3.92;;;14.20;99.90;;;;;;4980666;28;20230;-88
2023/09/19 06:36:11;;;;;;;10.75;4.35;;;14.30;99.90;;;;;;4980788;28;20227;-88
2023/09/19 06:38:38;;;;;;;14.20;4.20;;;14.40;99.90;;;;;;4980787;28;20176;-87
2023/09/19 06:41:05;;;;;;;14.48;4.22;;;14.40;99.90;;;;;;4997099;28;20670;-88
2023/09/19 06:43:32;;;;;;;19.88;4.75;;;14.40;99.90;;;;;;4981234;28;20176;-88
2023/09/19 06:45:59;;;;;;;11.20;3.83;;;14.40;99.90;;;;;;4996481;28;20176;-88
2023/09/19 06:48:25;;;;;;;16.35;4.72;;;14.40;99.90;;;;;;4980681;28;20180;-88
2023/09/19 06:50:52;;;;;;;18.10;4.97;;;14.40;99.90;;;;;;4981174;28;20624;-88
2023/09/19 06:53:18;;;;;;;13.32;4.00;;;14.40;99.90;;;;;;4999114;28;20199;-88
2023/09/19 06:55:45;;;;;;;16.13;4.38;;;14.50;99.90;;;;;;4998156;28;20176;-88
2023/09/19 06:58:11;;;;;;;17.60;4.20;;;14.60;99.90;;;;;;4980768;28;20191;-87
2023/09/19 07:00:38;;;;;;;15.35;4.80;;;14.50;99.90;;;;;;4996894;28;20204;-88
2023/09/19 07:03:08;;;;;;;13.70;4.10;;;14.60;99.90;;;;;;4997474;28;20185;-88
2023/09/19 07:05:38;;;;;;;13.70;4.30;;;14.60;99.90;;;;;;4980753;28;20176;-88
2023/09/19 07:08:08;;;;;;;16.13;4.90;;;14.60;99.90;;;;;;4980318;28;20211;-87
2023/09/19 07:10:33;;;;;;;16.90;4.82;;;14.60;99.90;;;;;;4980538;28;20339;-88
2023/09/19 07:13:01;;;;;;;9.85;4.32;;;14.70;99.90;;;;;;4980288;28;20259;-87
2023/09/19 07:15:30;;;;;;;12.50;4.30;;;14.70;99.90;;;;;;4996182;28;20287;-88
2023/09/19 07:17:56;;;;;;;13.77;4.55;;;14.70;99.90;;;;;;4980084;28;20185;-88
2023/09/19 07:20:28;;;;;;;16.02;4.50;;;14.80;99.90;;;;;;4996752;28;20215;-85
2023/09/19 07:22:59;;;;;;;14.07;4.53;;;14.80;99.90;;;;;;4980153;28;20173;-89
2023/09/19 07:25:26;;;;;;;12.05;4.60;;;14.80;99.90;;;;;;4980422;28;20548;-88
2023/09/19 07:27:52;;;;;;;15.18;4.50;;;14.90;99.90;;;;;;4979992;28;20208;-89
2023/09/19 07:30:17;;;;;;;10.60;3.90;;;14.90;99.90;;;;;;4980592;28;20263;-89
2023/09/19 07:32:43;;;;;;;11.82;4.60;;;14.90;99.90;;;;;;4980544;28;20247;-89
2023/09/19 07:35:09;;;;;;;12.30;4.80;;;14.90;99.90;;;;;;4981156;28;20180;-88
2023/09/19 07:37:36;;;;;;;17.38;5.05;;;15.00;99.90;;;;;;4980183;28;20712;-88
2023/09/19 07:40:11;;;;;;;14.70;4.95;;;15.10;99.90;;;;;;4997172;28;20200;-89
2023/09/19 07:42:40;;;;;;;18.85;4.75;;;15.10;99.90;;;;;;4980327;28;20176;-88
2023/09/19 07:45:07;;;;;;;15.15;4.78;;;15.10;99.90;;;;;;4980470;28;20180;-88
2023/09/19 07:47:34;;;;;;;12.32;4.53;;;15.10;99.90;;;;;;4997863;28;20199;-88
2023/09/19 07:50:02;;;;;;;12.95;4.10;;;15.20;99.90;;;;;;4980475;28;20192;-88
2023/09/19 07:52:28;;;;;;;15.05;4.80;;;15.20;99.90;;;;;;4981487;28;20231;-88
2023/09/19 07:54:57;;;;;;;14.32;4.05;;;15.20;99.90;;;;;;4982923;28;20603;-88
2023/09/19 07:57:22;;;;;;;13.48;4.32;;;15.30;99.90;;;;;;4982013;28;20569;-88
2023/09/19 07:59:48;;;;;;;12.88;4.63;;;15.30;99.90;;;;;;4981266;28;20207;-88
2023/09/19 08:02:16;;;;;;;15.95;4.35;;;15.40;99.90;;;;;;4980242;28;20184;-88
2023/09/19 08:04:48;;;;;;;14.23;4.55;;;15.40;99.90;;;;;;4980192;28;20181;-87
2023/09/19 08:07:14;;;;;;;19.50;5.28;;;15.40;99.90;;;;;;4997638;28;20212;-88
2023/09/19 08:09:41;;;;;;;13.50;4.47;;;15.40;99.90;;;;;;4989910;28;20211;-88
2023/09/19 08:12:10;;;;;;;12.85;4.55;;;15.50;99.90;;;;;;4998242;28;20184;-88
2023/09/19 08:14:37;;;;;;;17.17;5.20;;;15.60;99.90;;;;;;4980714;28;20622;-88
2023/09/19 08:17:05;;;;;;;17.00;4.35;;;15.70;99.90;;;;;;4980629;28;20176;-88
2023/09/19 08:19:31;;;;;;;13.32;4.63;;;15.70;99.90;;;;;;4980125;28;20215;-88
2023/09/19 08:22:01;;;;;;;12.82;4.10;;;15.80;99.90;;;;;;4979621;28;20191;-88
2023/09/19 08:24:28;;;;;;;14.27;4.90;;;15.80;99.90;;;;;;4997779;28;20204;-88
2023/09/19 08:26:57;;;;;;;13.95;4.40;;;15.80;99.90;;;;;;4979199;28;20214;-88
2023/09/19 08:29:27;;;;;;;14.75;4.18;;;15.80;99.90;;;;;;4978446;28;20259;-88
2023/09/19 08:31:55;;;;;;;11.00;3.92;;;15.90;99.90;;;;;;4978710;28;20287;-88
2023/09/19 08:34:23;;;;;;;12.43;4.88;;;16.00;99.90;;;;;;4979033;28;20267;-88
2023/09/19 08:36:58;;;;;;;11.40;4.50;;;16.00;99.90;;;;;;4979081;28;20176;-87
2023/09/19 08:39:25;;;;;;;13.20;4.22;;;16.00;99.90;;;;;;4971935;28;20241;-86
2023/09/19 08:42:01;;;;;;;12.35;4.07;;;16.00;99.90;;;;;;4981036;28;20189;-88
2023/09/19 08:44:30;;;;;;;9.45;3.83;;;16.10;99.90;;;;;;4972471;28;20184;-87
2023/09/19 08:47:22;;;;;;;11.95;4.20;;;16.00;99.90;;;;;;4978775;28;20228;-88
2023/09/19 08:50:05;;;;;;;11.88;4.13;;;16.00;99.90;;;;;;4978879;28;20339;-87
2023/09/19 08:52:42;;;;;;;11.77;4.35;;;16.00;99.90;;;;;;4995989;28;20160;-87
2023/09/19 08:55:12;;;;;;;12.40;4.07;;;16.10;99.90;;;;;;4978483;28;20635;-87
2023/09/19 08:57:42;;;;;;;11.15;4.18;;;16.20;99.90;;;;;;4994745;28;20176;-88
2023/09/19 09:00:12;;;;;;;11.63;4.68;;;16.30;99.90;;;;;;4978363;28;20703;-87
2023/09/19 09:02:43;;;;;;;12.05;4.38;;;16.30;99.90;;;;;;4995646;28;20648;-87
2023/09/19 09:05:10;;;;;;;11.48;4.60;;;16.40;99.90;;;;;;4978945;28;20184;-88
2023/09/19 09:07:37;;;;;;;14.75;4.25;;;16.40;99.90;;;;;;4978896;28;20204;-88
2023/09/19 09:10:04;;;;;;;13.80;4.38;;;16.40;99.90;;;;;;4977987;28;20247;-88
2023/09/19 09:12:31;;;;;;;13.43;4.75;;;16.40;99.90;;;;;;4978172;28;20502;-88
2023/09/19 09:14:57;;;;;;;15.38;4.90;;;16.50;99.90;;;;;;4977978;28;20188;-87
2023/09/19 09:17:26;;;;;;;15.90;4.78;;;16.50;99.90;;;;;;4978119;28;20275;-87
2023/09/19 09:19:55;;;;;;;11.68;4.53;;;16.60;99.90;;;;;;4977877;28;20246;-88
2023/09/19 09:22:21;;;;;;;9.75;4.57;;;16.70;99.90;;;;;;4995580;28;20169;-88
2023/09/19 09:24:57;;;;;;;15.57;4.18;;;16.60;99.90;;;;;;4979050;28;20553;-88
2023/09/19 09:27:23;;;;;;;15.10;5.07;;;16.50;99.90;;;;;;4977883;28;20208;-88
2023/09/19 09:29:50;;;;;;;16.70;4.22;;;16.50;99.90;;;;;;4995638;28;20184;-87
2023/09/19 09:32:20;;;;;;;7.93;3.95;;;16.60;99.90;;;;;;4977764;28;20176;-88
2023/09/19 09:34:55;;;;;;;12.98;4.55;;;16.70;99.90;;;;;;4978172;28;20643;-88
2023/09/19 09:37:22;;;;;;;8.93;4.15;;;16.80;99.90;;;;;;4979003;28;20279;-87
2023/09/19 09:42:46;;;;;;;8.98;3.78;;;16.80;99.90;;;;;;4999327;28;20267;-88
2023/09/19 09:48:03;;;;;;;10.20;4.00;;;16.80;99.90;;;;;;4999123;28;20250;-86
2023/09/19 09:50:44;;;;;;;12.55;4.05;;;16.90;99.90;;;;;;4981988;28;20272;-88
2023/09/19 09:53:21;;;;;;;11.75;3.78;;;16.90;99.90;;;;;;4982858;28;20610;-84
2023/09/19 09:56:13;;;;;;;9.07;3.90;;;16.90;99.90;;;;;;4998901;28;20168;-88
2023/09/19 09:58:48;;;;;;;12.60;4.18;;;16.80;99.90;;;;;;4981281;28;20172;-88
2023/09/19 10:01:15;;;;;;;14.95;4.43;;;16.80;99.90;;;;;;4997592;28;20195;-88
2023/09/19 10:03:48;;;;;;;8.85;3.92;;;16.80;99.90;;;;;;4981555;28;20204;-88
2023/09/19 10:09:13;;;;;;;9.02;4.00;;;16.80;99.90;;;;;;4999253;28;20208;-88
2023/09/19 10:11:45;;;;;;;12.30;3.85;;;16.90;99.90;;;;;;4981013;28;20169;-88
2023/09/19 10:14:23;;;;;;;8.40;3.83;;;17.10;99.90;;;;;;4981161;28;20671;-88
2023/09/19 10:16:50;;;;;;;13.00;4.38;;;17.20;99.90;;;;;;4998253;28;20161;-88
2023/09/19 10:19:57;;;;;;;8.40;3.78;;;17.20;99.90;;;;;;4981011;28;20191;-88
2023/09/19 10:22:26;;;;;;;12.07;4.25;;;17.30;99.90;;;;;;4960678;28;20188;-88
2023/09/19 10:24:53;;;;;;;12.15;4.22;;;17.30;99.90;;;;;;4981080;28;20222;-87
2023/09/19 10:27:26;;;;;;;10.00;3.35;;;17.20;99.90;;;;;;4980909;28;20208;-88
2023/09/19 10:29:56;;;;;;;16.80;3.60;;;17.30;99.90;;;;;;4981058;28;20620;-88
2023/09/19 10:32:23;;;;;;;10.70;4.10;;;17.20;99.90;;;;;;4982216;28;20176;-89
2023/09/19 10:34:49;;;;;;;10.52;3.63;;;17.30;99.90;;;;;;4981821;28;20180;-87
2023/09/19 10:37:22;;;;;;;12.70;4.15;;;17.30;99.90;;;;;;4980419;28;20180;-89
2023/09/19 10:39:49;;;;;;;7.85;3.67;;;17.30;99.90;;;;;;4980612;28;20200;-87
2023/09/19 10:42:19;;;;;;;10.90;4.13;;;17.40;99.90;;;;;;4998453;28;20177;-85
2023/09/19 10:44:53;;;;;;;8.35;3.72;;;17.50;99.90;;;;;;4981438;28;20230;-86
2023/09/19 10:47:20;;;;;;;8.13;3.55;;;17.80;99.90;;;;;;4998098;28;20196;-88
2023/09/19 10:49:47;;;;;;;14.00;3.70;;;18.00;99.90;;;;;;4980543;28;20572;-88
2023/09/19 10:52:20;;;;;;;11.07;4.20;;;18.10;99.90;;;;;;4980331;28;20187;-88
2023/09/19 10:54:51;;;;;;;11.45;4.80;;;18.10;99.90;;;;;;4981043;28;20242;-87
2023/09/19 10:57:24;;;;;;;11.40;3.65;;;18.20;99.90;;;;;;4981056;28;20231;-88
2023/09/19 11:00:23;;;;;;;9.43;3.53;;;18.30;99.90;;;;;;4998467;28;20710;-87
2023/09/19 11:03:11;;;;;;;6.50;3.45;;;18.40;99.90;;;;;;4996862;28;20202;-88
2023/09/19 11:05:41;;;;;;;11.38;3.90;;;18.40;99.90;;;;;;4996802;28;20184;-88
2023/09/19 11:08:09;;;;;;;8.93;3.00;;;18.50;99.90;;;;;;4980787;28;20211;-88
2023/09/19 11:10:48;;;;;;;9.73;3.45;;;18.70;99.90;;;;;;4996724;28;20311;-86
2023/09/19 11:13:30;;;;;;;9.40;4.63;;;18.90;99.90;;;;;;4980460;28;20258;-89
2023/09/19 11:15:59;;;;;;;6.97;3.15;;;19.00;99.90;;;;;;4980725;28;20196;-88
2023/09/19 11:18:53;;;;;;;11.48;3.63;;;19.00;99.90;;;;;;4998188;28;20203;-87
2023/09/19 11:21:31;;;;;;;14.23;3.78;;;19.10;99.90;;;;;;4980417;28;20236;-87
2023/09/19 11:24:37;;;;;;;8.05;3.95;;;19.10;99.90;;;;;;4996695;28;20184;-85
2023/09/19 11:27:17;;;;;;;13.23;3.47;;;19.30;99.90;;;;;;4998014;28;20255;-88
2023/09/19 11:29:43;;;;;;;9.65;3.10;;;19.40;99.90;;;;;;4996628;28;20570;-88
2023/09/19 11:32:09;;;;;;;6.05;2.97;;;19.10;99.90;;;;;;4980498;28;20181;-87
2023/09/19 11:34:47;;;;;;;6.50;3.03;;;19.10;99.90;;;;;;4996233;28;20180;-87
2023/09/19 11:37:13;;;;;;;10.90;3.45;;;19.20;99.90;;;;;;4981642;28;20207;-89
2023/09/19 11:39:40;;;;;;;8.20;3.28;;;19.20;99.90;;;;;;4996872;28;20200;-87
2023/09/19 11:42:53;;;;;;;10.18;3.17;;;19.00;99.90;;;;;;4980796;28;20177;-88
2023/09/19 11:45:49;;;;;;;9.27;3.63;;;19.10;99.90;;;;;;4982067;28;20192;-88
2023/09/19 11:48:18;;;;;;;8.55;3.25;;;19.40;99.90;;;;;;4999246;28;20283;-88
2023/09/19 11:50:47;;;;;;;20.35;4.32;;;19.50;99.90;;;;;;4980600;28;20671;-88
2023/09/19 11:53:13;;;;;;;8.20;2.90;;;19.90;99.90;;;;;;4980914;28;20180;-87
2023/09/19 11:55:43;;;;;;;10.15;3.22;;;20.30;99.90;;;;;;4984666;28;20244;-88
2023/09/19 11:58:09;;;;;;;8.70;3.50;;;20.30;99.90;;;;;;4986420;28;20177;-87
2023/09/19 12:00:39;;;;;;;6.45;3.05;;;20.20;99.90;;;;;;4998823;28;20250;-86
2023/09/19 12:03:10;;;;;;;7.15;3.13;;;20.10;99.90;;;;;;4981435;28;20272;-88
2023/09/19 12:05:37;;;;;;;6.80;2.70;;;20.20;99.90;;;;;;4982679;28;20722;-85
2023/09/19 12:08:10;;;;;;;5.55;2.70;;;20.30;99.90;;;;;;4998326;28;20259;-86
2023/09/19 12:10:49;;;;;;;8.48;3.42;;;20.20;99.90;;;;;;4980178;28;20223;-87
2023/09/19 12:13:19;;;;;;;8.20;2.90;;;20.00;99.90;;;;;;4979772;28;20184;-85
2023/09/19 12:15:47;;;;;;;9.27;3.05;;;19.90;99.90;;;;;;4997334;28;20612;-88
2023/09/19 12:18:31;;;;;;;9.65;3.40;;;20.00;99.90;;;;;;4980051;28;20249;-86
2023/09/19 12:20:58;;;;;;;6.57;2.92;;;20.30;99.90;;;;;;4979670;28;20579;-87
2023/09/19 12:23:25;;;;;;;7.97;3.17;;;20.60;99.90;;;;;;4979491;28;20555;-85
2023/09/19 12:25:53;;;;;;;8.77;2.80;;;20.80;99.90;;;;;;4979526;28;20208;-87
2023/09/19 12:28:22;;;;;;;9.70;3.10;;;20.60;99.90;;;;;;4979351;28;20215;-87
2023/09/19 12:30:48;;;;;;;6.13;3.22;;;20.60;99.90;;;;;;4979374;28;20651;-86
2023/09/19 12:33:19;;;;;;;5.38;2.90;;;20.70;99.90;;;;;;4979326;28;20639;-87
2023/09/19 12:35:46;;;;;;;8.52;2.88;;;20.70;99.90;;;;;;4996749;28;20152;-86
2023/09/19 12:38:24;;;;;;;8.95;2.90;;;20.70;99.90;;;;;;4995150;28;20219;-87
2023/09/19 12:40:51;;;;;;;6.15;2.85;;;20.70;99.90;;;;;;4996357;28;20196;-87
2023/09/19 12:43:18;;;;;;;12.15;3.38;;;20.70;99.90;;;;;;4995347;28;20187;-87
2023/09/19 12:45:44;;;;;;;7.47;2.70;;;20.60;99.90;;;;;;4979125;28;20230;-86
2023/09/19 12:48:33;;;;;;;10.63;3.22;;;20.60;99.90;;;;;;4979329;28;20749;-87
2023/09/19 12:51:09;;;;;;;6.68;2.85;;;20.70;99.90;;;;;;4978960;28;20290;-84
2023/09/19 12:53:40;;;;;;;6.22;2.80;;;20.80;99.90;;;;;;4978702;28;20283;-86
2023/09/19 12:56:08;;;;;;;6.97;3.00;;;21.00;99.90;;;;;;4978429;28;20168;-86
2023/09/19 12:58:47;;;;;;;7.65;3.17;;;21.10;99.90;;;;;;4978635;28;20227;-86
2023/09/19 13:01:17;;;;;;;6.13;2.88;;;20.90;99.90;;;;;;4995957;28;20200;-86
2023/09/19 13:03:42;;;;;;;9.35;2.97;;;20.60;99.90;;;;;;4978652;28;20184;-86